Time;durP1;ratioP1;P1;durP2;ratioP2;P2;SDS_P1;SDS_P2;PMS_P1;PMS_P2;Temp;Humidity;BMP_temperature;BMP_pressure;BME280_temperature;BME280_humidity;BME280_pressure;Samples;Min_cycle;Max_cycle;Signal;HPM_P1;HPM_P2
2022/11/24 00:01:17;;;;;;;1999.90;999.90;;;7.20;99.90;;;;;;4972562;28;20479;-68
2022/11/24 00:03:46;;;;;;;1999.90;999.90;;;7.30;99.90;;;;;;4972165;28;20450;-68
2022/11/24 00:06:15;;;;;;;1999.90;999.90;;;7.20;99.90;;;;;;4972436;28;20570;-68
2022/11/24 00:08:44;;;;;;;1999.90;999.90;;;7.20;99.90;;;;;;4971844;28;20534;-67
2022/11/24 00:11:12;;;;;;;1999.90;999.90;;;7.10;99.90;;;;;;4972048;28;20455;-68
2022/11/24 00:13:39;;;;;;;1999.90;999.90;;;7.00;99.90;;;;;;4972564;28;20459;-68
2022/11/24 00:16:09;;;;;;;1999.90;999.90;;;7.00;99.90;;;;;;4972152;28;20451;-68
2022/11/24 00:18:37;;;;;;;1999.90;999.90;;;7.00;99.90;;;;;;4971830;28;20491;-68
2022/11/24 00:21:04;;;;;;;1999.90;999.90;;;6.90;99.90;;;;;;4972024;28;20532;-67
2022/11/24 00:23:32;;;;;;;1999.90;999.90;;;6.90;99.90;;;;;;4971592;28;20448;-68
2022/11/24 00:26:04;;;;;;;1999.90;999.90;;;7.00;99.90;;;;;;4971809;28;20444;-68
2022/11/24 00:28:32;;;;;;;1999.90;999.90;;;7.00;99.90;;;;;;4971603;28;20955;-68
2022/11/24 00:30:59;;;;;;;1999.90;999.90;;;7.10;99.90;;;;;;4971711;28;20835;-68
2022/11/24 00:33:26;;;;;;;1999.90;999.90;;;7.10;99.90;;;;;;4971886;28;20467;-68
2022/11/24 00:35:58;;;;;;;1999.90;999.90;;;7.10;99.90;;;;;;4971778;28;20456;-67
2022/11/24 00:38:25;;;;;;;1999.90;999.90;;;7.10;99.90;;;;;;4971197;28;20855;-68
2022/11/24 00:40:52;;;;;;;1999.90;999.90;;;7.10;99.90;;;;;;4971901;28;20468;-68
2022/11/24 00:43:19;;;;;;;1999.90;999.90;;;7.20;99.90;;;;;;4971979;28;20482;-68
2022/11/24 00:45:46;;;;;;;1999.90;999.90;;;7.20;99.90;;;;;;4971633;28;20972;-68
2022/11/24 00:48:12;;;;;;;1999.90;999.90;;;7.30;99.90;;;;;;4971264;28;20448;-68
2022/11/24 00:50:39;;;;;;;1999.90;999.90;;;7.30;99.90;;;;;;4971381;28;20475;-68
2022/11/24 00:53:07;;;;;;;1999.90;999.90;;;7.40;99.90;;;;;;4971301;28;20447;-68
2022/11/24 00:55:34;;;;;;;1999.90;999.90;;;7.50;99.90;;;;;;4971221;28;20859;-68
2022/11/24 00:58:01;;;;;;;1999.90;999.90;;;7.60;99.90;;;;;;4971078;28;20883;-68
2022/11/24 01:00:28;;;;;;;1999.90;999.90;;;7.70;99.90;;;;;;4971037;28;20478;-67
2022/11/24 01:02:55;;;;;;;1999.90;999.90;;;7.70;99.90;;;;;;4971054;28;20462;-68
2022/11/24 01:05:22;;;;;;;1999.90;999.90;;;7.70;99.90;;;;;;4971059;28;20451;-68
2022/11/24 01:07:48;;;;;;;1999.90;999.90;;;7.60;99.90;;;;;;4970990;28;20459;-68
2022/11/24 01:10:17;;;;;;;1999.90;999.90;;;7.60;99.90;;;;;;4970672;28;20479;-68
2022/11/24 01:12:44;;;;;;;1999.90;999.90;;;7.50;99.90;;;;;;4970955;28;20474;-68
2022/11/24 01:15:10;;;;;;;1999.90;999.90;;;7.40;99.90;;;;;;4971042;28;20827;-68
2022/11/24 01:17:37;;;;;;;1999.90;999.90;;;7.40;99.90;;;;;;4970759;28;20804;-68
2022/11/24 01:20:05;;;;;;;1999.90;999.90;;;7.40;99.90;;;;;;4970327;28;20487;-68
2022/11/24 01:22:31;;;;;;;1999.90;999.90;;;7.40;99.90;;;;;;4971032;28;20455;-68
2022/11/24 01:24:58;;;;;;;1999.90;999.90;;;7.40;99.90;;;;;;4970904;28;20534;-67
2022/11/24 01:27:26;;;;;;;1999.90;999.90;;;7.30;99.90;;;;;;4970987;28;20451;-68
2022/11/24 01:29:53;;;;;;;1999.90;999.90;;;7.40;99.90;;;;;;4970485;28;20467;-68
2022/11/24 01:32:20;;;;;;;1999.90;999.90;;;7.30;99.90;;;;;;4970872;28;20454;-68
2022/11/24 01:34:46;;;;;;;1999.90;999.90;;;7.30;99.90;;;;;;4971100;28;20455;-67
2022/11/24 01:37:13;;;;;;;1999.90;999.90;;;7.40;99.90;;;;;;4974868;28;20448;-68
2022/11/24 01:39:40;;;;;;;1999.90;999.90;;;7.40;99.90;;;;;;4974207;28;20483;-68
2022/11/24 01:42:07;;;;;;;1999.90;999.90;;;7.40;99.90;;;;;;4974724;28;20462;-67
2022/11/24 01:44:35;;;;;;;1999.90;999.90;;;7.40;99.90;;;;;;4974439;28;20443;-68
2022/11/24 01:47:07;;;;;;;1999.90;999.90;;;7.40;99.90;;;;;;4974620;28;20450;-68
2022/11/24 01:49:39;;;;;;;1999.90;999.90;;;7.40;99.90;;;;;;4974195;28;20470;-67
2022/11/24 01:52:10;;;;;;;1999.90;999.90;;;7.40;99.90;;;;;;4974571;28;20447;-68
2022/11/24 01:54:40;;;;;;;1999.90;999.90;;;7.40;99.90;;;;;;4974375;28;20462;-68
2022/11/24 01:57:13;;;;;;;1999.90;999.90;;;7.40;99.90;;;;;;4974594;28;20458;-68
2022/11/24 01:59:41;;;;;;;1999.90;999.90;;;7.50;99.90;;;;;;4973807;28;20487;-68
2022/11/24 02:02:08;;;;;;;1999.90;999.90;;;7.50;99.90;;;;;;4974517;28;20826;-68
2022/11/24 02:04:36;;;;;;;1999.90;999.90;;;7.50;99.90;;;;;;4974299;28;20969;-67
2022/11/24 02:07:05;;;;;;;1999.90;999.90;;;7.50;99.90;;;;;;4974099;28;20451;-68
2022/11/24 02:09:39;;;;;;;1999.90;999.90;;;7.50;99.90;;;;;;4973723;28;20468;-68
2022/11/24 02:12:06;;;;;;;1999.90;999.90;;;7.60;99.90;;;;;;4973986;28;20819;-68
2022/11/24 02:14:35;;;;;;;1999.90;999.90;;;7.60;99.90;;;;;;4974059;28;20450;-68
2022/11/24 02:17:03;;;;;;;1999.90;999.90;;;7.70;99.90;;;;;;4973826;28;20462;-68
2022/11/24 02:19:41;;;;;;;1999.90;999.90;;;7.70;99.90;;;;;;4973720;28;20594;-67
2022/11/24 02:22:16;;;;;;;1999.90;999.90;;;7.70;99.90;;;;;;4973823;28;20972;-68
2022/11/24 02:24:48;;;;;;;1999.90;999.90;;;7.70;99.90;;;;;;4973965;28;20447;-68
2022/11/24 02:27:16;;;;;;;1999.90;999.90;;;7.80;99.90;;;;;;4974066;28;20455;-68
2022/11/24 02:29:43;;;;;;;1999.90;999.90;;;7.80;99.90;;;;;;4973398;28;20460;-68
2022/11/24 02:32:11;;;;;;;1999.90;999.90;;;7.70;99.90;;;;;;4973732;28;20455;-67
2022/11/24 02:34:38;;;;;;;1999.90;999.90;;;7.60;99.90;;;;;;4973803;28;20459;-67
2022/11/24 02:37:05;;;;;;;1999.90;999.90;;;7.60;99.90;;;;;;4973459;28;20451;-67
2022/11/24 02:39:32;;;;;;;1999.90;999.90;;;7.50;99.90;;;;;;4973098;28;20522;-67
2022/11/24 02:42:02;;;;;;;1999.90;999.90;;;7.50;99.90;;;;;;4973475;28;20946;-68
2022/11/24 02:44:35;;;;;;;1999.90;999.90;;;7.50;99.90;;;;;;4973516;28;20454;-67
2022/11/24 02:47:03;;;;;;;1999.90;999.90;;;7.50;99.90;;;;;;4973071;28;20456;-69
2022/11/24 02:49:30;;;;;;;1999.90;999.90;;;7.50;99.90;;;;;;4972966;28;20503;-69
2022/11/24 02:51:57;;;;;;;1999.90;999.90;;;7.50;99.90;;;;;;4973380;28;20462;-69
2022/11/24 02:54:23;;;;;;;1999.90;999.90;;;7.40;99.90;;;;;;4973401;28;20828;-69
2022/11/24 02:56:50;;;;;;;1999.90;999.90;;;7.30;99.90;;;;;;4973452;28;20819;-69
2022/11/24 02:59:17;;;;;;;1999.90;999.90;;;7.30;99.90;;;;;;4972700;28;21024;-68
2022/11/24 03:01:45;;;;;;;1999.90;999.90;;;7.20;99.90;;;;;;4973335;28;20451;-69
2022/11/24 03:04:12;;;;;;;1999.90;999.90;;;7.10;99.90;;;;;;4973328;28;20443;-69
2022/11/24 03:06:39;;;;;;;1999.90;999.90;;;7.10;99.90;;;;;;4973097;28;20479;-69
2022/11/24 03:09:06;;;;;;;1999.90;999.90;;;7.00;99.90;;;;;;4972510;28;20459;-69
2022/11/24 03:11:33;;;;;;;1999.90;999.90;;;7.00;99.90;;;;;;4972992;28;20460;-68
2022/11/24 03:14:00;;;;;;;1999.90;999.90;;;6.90;99.90;;;;;;4973176;28;20455;-68
2022/11/24 03:16:26;;;;;;;1999.90;999.90;;;6.90;99.90;;;;;;4973107;28;20463;-69
2022/11/24 03:18:54;;;;;;;1999.90;999.90;;;6.90;99.90;;;;;;4972349;28;20502;-68
2022/11/24 03:21:21;;;;;;;1999.90;999.90;;;6.90;99.90;;;;;;4973199;28;20447;-69
2022/11/24 03:23:48;;;;;;;1999.90;999.90;;;6.80;99.90;;;;;;4972984;28;20448;-69
2022/11/24 03:26:17;;;;;;;1999.90;999.90;;;6.80;99.90;;;;;;4972791;28;20460;-69
2022/11/24 03:28:45;;;;;;;1999.90;999.90;;;6.80;99.90;;;;;;4972549;28;20448;-68
2022/11/24 03:31:11;;;;;;;1999.90;999.90;;;6.80;99.90;;;;;;4972667;28;20475;-68
2022/11/24 03:33:39;;;;;;;1999.90;999.90;;;6.70;99.90;;;;;;4972802;28;20451;-69
2022/11/24 03:36:08;;;;;;;1999.90;999.90;;;6.70;99.90;;;;;;4972521;28;20953;-68
2022/11/24 03:38:35;;;;;;;1999.90;999.90;;;6.60;99.90;;;;;;4972369;28;20444;-68
2022/11/24 03:41:02;;;;;;;1999.90;999.90;;;6.60;99.90;;;;;;4972769;28;20471;-69
2022/11/24 03:43:28;;;;;;;1999.90;999.90;;;6.60;99.90;;;;;;4972819;28;20455;-68
2022/11/24 03:45:55;;;;;;;1999.90;999.90;;;6.60;99.90;;;;;;4972543;28;20451;-69
2022/11/24 03:48:22;;;;;;;1999.90;999.90;;;6.70;99.90;;;;;;4972527;28;20801;-69
2022/11/24 03:50:53;;;;;;;1999.90;999.90;;;6.80;99.90;;;;;;4972317;28;20854;-68
2022/11/24 03:53:22;;;;;;;1999.90;999.90;;;6.90;99.90;;;;;;4972610;28;20448;-68
2022/11/24 03:55:49;;;;;;;1999.90;999.90;;;6.90;99.90;;;;;;4972326;28;20837;-69
2022/11/24 03:58:15;;;;;;;1999.90;999.90;;;7.00;99.90;;;;;;4971064;28;20831;-68
2022/11/24 04:00:42;;;;;;;1999.90;999.90;;;7.10;99.90;;;;;;4972281;28;20487;-69
2022/11/24 04:03:09;;;;;;;1999.90;999.90;;;7.10;99.90;;;;;;4972354;28;20454;-69
2022/11/24 04:05:36;;;;;;;1999.90;999.90;;;7.20;99.90;;;;;;4972245;28;20451;-69
2022/11/24 04:08:04;;;;;;;1999.90;999.90;;;7.20;99.90;;;;;;4972011;28;20466;-69
2022/11/24 04:10:35;;;;;;;1999.90;999.90;;;7.10;99.90;;;;;;4971753;28;20601;-69
2022/11/24 04:13:01;;;;;;;1999.90;999.90;;;7.10;99.90;;;;;;4971915;28;20462;-69
2022/11/24 04:15:28;;;;;;;1999.90;999.90;;;7.20;99.90;;;;;;4972329;28;20534;-69
2022/11/24 04:17:55;;;;;;;1999.90;999.90;;;7.20;99.90;;;;;;4971942;28;20447;-69
2022/11/24 04:20:23;;;;;;;1999.90;999.90;;;7.30;99.90;;;;;;4971851;28;21309;-69
2022/11/24 04:22:50;;;;;;;1999.90;999.90;;;7.30;99.90;;;;;;4972475;28;20832;-69
2022/11/24 04:25:17;;;;;;;1999.90;999.90;;;7.20;99.90;;;;;;4972222;28;20452;-69
2022/11/24 04:27:45;;;;;;;1999.90;999.90;;;7.20;99.90;;;;;;4972023;28;20518;-69
2022/11/24 04:30:12;;;;;;;1999.90;999.90;;;7.30;99.90;;;;;;4971473;28;20470;-66
2022/11/24 04:32:39;;;;;;;1999.90;999.90;;;7.30;99.90;;;;;;4971594;28;20482;-68
2022/11/24 04:35:07;;;;;;;1999.90;999.90;;;7.30;99.90;;;;;;4971681;28;20457;-68
2022/11/24 04:37:34;;;;;;;1999.90;999.90;;;7.30;99.90;;;;;;4971516;28;20454;-69
2022/11/24 04:40:01;;;;;;;1999.90;999.90;;;7.40;99.90;;;;;;4970887;28;20483;-69
2022/11/24 04:42:28;;;;;;;1999.90;999.90;;;7.50;99.90;;;;;;4971458;28;20999;-66
2022/11/24 04:44:56;;;;;;;1999.90;999.90;;;7.50;99.90;;;;;;4971222;28;20443;-69
2022/11/24 04:47:24;;;;;;;1999.90;999.90;;;7.50;99.90;;;;;;4971172;28;20456;-69
2022/11/24 04:49:52;;;;;;;1999.90;999.90;;;7.40;99.90;;;;;;4970773;28;21042;-68
2022/11/24 04:52:19;;;;;;;1999.90;999.90;;;7.50;99.90;;;;;;4971408;28;20452;-69
2022/11/24 04:54:46;;;;;;;1999.90;999.90;;;7.50;99.90;;;;;;4970807;28;20463;-69
2022/11/24 04:57:16;;;;;;;1999.90;999.90;;;7.50;99.90;;;;;;4970928;28;20964;-67
2022/11/24 04:59:43;;;;;;;1999.90;999.90;;;7.50;99.90;;;;;;4970675;28;20498;-69
2022/11/24 05:02:12;;;;;;;1999.90;999.90;;;7.40;99.90;;;;;;4971126;28;20506;-69
2022/11/24 05:04:39;;;;;;;1999.90;999.90;;;7.40;99.90;;;;;;4971183;28;20458;-69
2022/11/24 05:07:06;;;;;;;1999.90;999.90;;;7.30;99.90;;;;;;4971745;28;20993;-69
2022/11/24 05:09:33;;;;;;;1999.90;999.90;;;7.20;99.90;;;;;;4970074;28;20470;-69
2022/11/24 05:12:00;;;;;;;1999.90;999.90;;;7.10;99.90;;;;;;4971298;28;20451;-69
2022/11/24 05:14:28;;;;;;;1999.90;999.90;;;7.00;99.90;;;;;;4971111;28;20466;-69
2022/11/24 05:16:55;;;;;;;1999.90;999.90;;;6.90;99.90;;;;;;4970697;28;20455;-69
2022/11/24 05:19:23;;;;;;;1999.90;999.90;;;6.90;99.90;;;;;;4970592;28;20491;-69
2022/11/24 05:21:51;;;;;;;1999.90;999.90;;;6.80;99.90;;;;;;4970442;28;20456;-69
2022/11/24 05:24:17;;;;;;;1999.90;999.90;;;6.90;99.90;;;;;;4971053;28;20448;-69
2022/11/24 05:26:44;;;;;;;1999.90;999.90;;;6.80;99.90;;;;;;4971224;28;20460;-67
2022/11/24 05:29:11;;;;;;;1999.90;999.90;;;6.80;99.90;;;;;;4970813;28;20474;-69
2022/11/24 05:31:38;;;;;;;1999.90;999.90;;;6.80;99.90;;;;;;4971052;28;20451;-67
2022/11/24 05:34:05;;;;;;;1999.90;999.90;;;6.80;99.90;;;;;;4971061;28;20458;-66
2022/11/24 05:39:17;;;;;;;1999.90;999.90;;;6.70;99.90;;;;;;4970753;28;20466;-67
2022/11/24 05:41:44;;;;;;;1999.90;999.90;;;6.70;99.90;;;;;;4971203;28;20451;-67
2022/11/24 05:44:11;;;;;;;1999.90;999.90;;;6.70;99.90;;;;;;4971094;28;20455;-67
2022/11/24 05:46:38;;;;;;;1999.90;999.90;;;6.80;99.90;;;;;;4970404;28;20754;-66
2022/11/24 05:49:04;;;;;;;1999.90;999.90;;;6.90;99.90;;;;;;4979272;28;20479;-67
2022/11/24 05:51:32;;;;;;;1999.90;999.90;;;7.00;99.90;;;;;;4968818;28;20459;-66
2022/11/24 05:53:59;;;;;;;1999.90;999.90;;;6.90;99.90;;;;;;4965706;28;20460;-68
2022/11/24 05:56:26;;;;;;;1999.90;999.90;;;6.90;99.90;;;;;;4959927;28;20453;-67
2022/11/24 05:58:53;;;;;;;1999.90;999.90;;;6.90;99.90;;;;;;4966585;28;20460;-68
2022/11/24 06:01:19;;;;;;;1999.90;999.90;;;6.90;99.90;;;;;;4970617;28;20475;-66
2022/11/24 06:03:46;;;;;;;1999.90;999.90;;;6.90;99.90;;;;;;4962523;28;20459;-68
2022/11/24 06:06:13;;;;;;;1999.90;999.90;;;7.00;99.90;;;;;;4960854;28;20874;-68
2022/11/24 06:08:41;;;;;;;1999.90;999.90;;;7.00;99.90;;;;;;4955402;28;20460;-68
2022/11/24 06:11:18;;;;;;;1999.90;999.90;;;7.10;99.90;;;;;;4963723;28;20455;-69
2022/11/24 06:13:47;;;;;;;1999.90;999.90;;;7.10;99.90;;;;;;4959355;28;20458;-68
2022/11/24 06:16:14;;;;;;;1999.90;999.90;;;7.10;99.90;;;;;;4955782;28;22367;-69
2022/11/24 06:18:41;;;;;;;1999.90;999.90;;;7.10;99.90;;;;;;4963637;28;20974;-69
2022/11/24 06:21:08;;;;;;;1999.90;999.90;;;7.00;99.90;;;;;;4969500;28;20481;-68
2022/11/24 06:23:35;;;;;;;1999.90;999.90;;;7.10;99.90;;;;;;4972621;28;20458;-68
2022/11/24 06:26:03;;;;;;;1999.90;999.90;;;7.10;99.90;;;;;;4972168;28;20965;-69
2022/11/24 06:28:30;;;;;;;1999.90;999.90;;;7.20;99.90;;;;;;4952809;28;20463;-68
2022/11/24 06:31:01;;;;;;;1999.90;999.90;;;7.20;99.90;;;;;;4946703;28;20456;-68
2022/11/24 06:33:32;;;;;;;1999.90;999.90;;;7.20;99.90;;;;;;4951967;28;20456;-69
2022/11/24 06:36:01;;;;;;;1999.90;999.90;;;7.20;99.90;;;;;;4956365;28;20459;-67
2022/11/24 06:38:28;;;;;;;1999.90;999.90;;;7.10;99.90;;;;;;4973503;28;20447;-68
2022/11/24 06:40:59;;;;;;;1999.90;999.90;;;7.20;99.90;;;;;;4973583;28;20993;-67
2022/11/24 06:43:28;;;;;;;1999.90;999.90;;;7.20;99.90;;;;;;4973904;28;20620;-68
2022/11/24 06:45:55;;;;;;;1999.90;999.90;;;7.30;99.90;;;;;;4973740;28;20451;-66
2022/11/24 06:48:22;;;;;;;1999.90;999.90;;;7.50;99.90;;;;;;4973087;28;20447;-68
2022/11/24 06:50:49;;;;;;;1999.90;999.90;;;7.50;99.90;;;;;;4973241;28;21005;-69
2022/11/24 06:53:16;;;;;;;1999.90;999.90;;;7.60;99.90;;;;;;4973460;28;20847;-70
2022/11/24 06:55:43;;;;;;;1999.90;999.90;;;7.70;99.90;;;;;;4974041;28;20455;-70
2022/11/24 06:58:10;;;;;;;1999.90;999.90;;;7.80;99.90;;;;;;4973892;28;20458;-69
2022/11/24 07:00:38;;;;;;;1999.90;999.90;;;7.80;99.90;;;;;;4973277;28;20679;-70
2022/11/24 07:03:05;;;;;;;1999.90;999.90;;;7.90;99.90;;;;;;4973763;28;20448;-70
2022/11/24 07:05:32;;;;;;;1999.90;999.90;;;8.00;99.90;;;;;;4972323;28;20455;-70
2022/11/24 07:08:00;;;;;;;1999.90;999.90;;;8.00;99.90;;;;;;4973138;28;20454;-69
2022/11/24 07:10:26;;;;;;;1999.90;999.90;;;8.00;99.90;;;;;;4972939;28;20530;-67
2022/11/24 07:12:53;;;;;;;1999.90;999.90;;;8.10;99.90;;;;;;4973308;28;20451;-69
2022/11/24 07:15:20;;;;;;;1999.90;999.90;;;8.10;99.90;;;;;;4973320;28;20452;-68
2022/11/24 07:17:48;;;;;;;1999.90;999.90;;;8.00;99.90;;;;;;4973174;28;20455;-69
2022/11/24 07:20:15;;;;;;;1999.90;999.90;;;8.00;99.90;;;;;;4972605;28;21017;-69
2022/11/24 07:22:42;;;;;;;1999.90;999.90;;;8.00;99.90;;;;;;4972951;28;20460;-69
2022/11/24 07:25:09;;;;;;;1999.90;999.90;;;7.90;99.90;;;;;;4973134;28;20448;-69
2022/11/24 07:27:36;;;;;;;1999.90;999.90;;;7.90;99.90;;;;;;4972790;28;20535;-69
2022/11/24 07:30:04;;;;;;;1999.90;999.90;;;7.80;99.90;;;;;;4969525;28;20471;-69
2022/11/24 07:32:31;;;;;;;1999.90;999.90;;;7.90;99.90;;;;;;4972622;28;20439;-68
2022/11/24 07:34:59;;;;;;;1999.90;999.90;;;7.80;99.90;;;;;;4972790;28;20447;-69
2022/11/24 07:37:27;;;;;;;1999.90;999.90;;;7.80;99.90;;;;;;4972909;28;20539;-70
2022/11/24 07:39:53;;;;;;;1999.90;999.90;;;7.80;99.90;;;;;;4972478;28;20571;-71
2022/11/24 07:42:20;;;;;;;1999.90;999.90;;;7.80;99.90;;;;;;4972790;28;20804;-69
2022/11/24 07:44:47;;;;;;;1999.90;999.90;;;7.80;99.90;;;;;;4972543;28;20462;-69
2022/11/24 07:47:14;;;;;;;1999.90;999.90;;;7.80;99.90;;;;;;4972933;28;20448;-70
2022/11/24 07:49:40;;;;;;;1999.90;999.90;;;7.80;99.90;;;;;;4972305;28;20468;-68
2022/11/24 07:52:09;;;;;;;1999.90;999.90;;;7.90;99.90;;;;;;4972682;28;20456;-68
2022/11/24 07:54:35;;;;;;;1999.90;999.90;;;7.90;99.90;;;;;;4972260;28;20456;-69
2022/11/24 07:57:02;;;;;;;1999.90;999.90;;;7.90;99.90;;;;;;4972496;28;20458;-69
2022/11/24 07:59:30;;;;;;;1999.90;999.90;;;7.90;99.90;;;;;;4971893;28;20555;-70
2022/11/24 08:01:57;;;;;;;1999.90;999.90;;;7.90;99.90;;;;;;4972213;28;20542;-69
2022/11/24 08:04:24;;;;;;;1999.90;999.90;;;7.90;99.90;;;;;;4972334;28;20443;-69
2022/11/24 08:06:50;;;;;;;1999.90;999.90;;;7.90;99.90;;;;;;4972115;28;20461;-69
2022/11/24 08:09:18;;;;;;;1999.90;999.90;;;8.00;99.90;;;;;;4971416;28;20478;-69
2022/11/24 08:11:45;;;;;;;1999.90;999.90;;;7.90;99.90;;;;;;4971804;28;20463;-68
2022/11/24 08:14:12;;;;;;;1999.90;999.90;;;8.00;99.90;;;;;;4971855;28;20796;-69
2022/11/24 08:16:39;;;;;;;1999.90;999.90;;;8.00;99.90;;;;;;4971837;28;20865;-68
2022/11/24 08:19:06;;;;;;;1999.90;999.90;;;8.10;99.90;;;;;;4971669;28;20476;-69
2022/11/24 08:21:32;;;;;;;1999.90;999.90;;;8.10;99.90;;;;;;4971927;28;20491;-68
2022/11/24 08:23:59;;;;;;;1999.90;999.90;;;8.10;99.90;;;;;;4971899;28;20542;-69
2022/11/24 08:26:27;;;;;;;1999.90;999.90;;;8.20;99.90;;;;;;4971737;28;20982;-69
2022/11/24 08:28:56;;;;;;;1999.90;999.90;;;8.20;99.90;;;;;;4971332;28;20448;-69
2022/11/24 08:31:25;;;;;;;1999.90;999.90;;;8.20;99.90;;;;;;4971926;28;20465;-69
2022/11/24 08:33:54;;;;;;;1999.90;999.90;;;8.20;99.90;;;;;;4972061;28;20455;-69
2022/11/24 08:36:21;;;;;;;1999.90;999.90;;;8.30;99.90;;;;;;4971711;28;20447;-69
2022/11/24 08:38:48;;;;;;;1999.90;999.90;;;8.40;99.90;;;;;;4971445;28;20447;-69
2022/11/24 08:41:17;;;;;;;1999.90;999.90;;;8.40;99.90;;;;;;4971331;28;20538;-69
2022/11/24 08:43:45;;;;;;;1999.90;999.90;;;8.40;99.90;;;;;;4971618;28;20448;-75
2022/11/24 08:46:15;;;;;;;1999.90;999.90;;;8.40;99.90;;;;;;4971439;28;20982;-71
2022/11/24 08:48:43;;;;;;;1999.90;999.90;;;8.40;99.90;;;;;;4971071;28;20966;-70
2022/11/24 08:51:12;;;;;;;1999.90;999.90;;;8.30;99.90;;;;;;4971383;28;20448;-71
2022/11/24 08:53:39;;;;;;;1999.90;999.90;;;8.30;99.90;;;;;;4971456;28;20451;-70
2022/11/24 08:56:07;;;;;;;1999.90;999.90;;;8.40;99.90;;;;;;4971158;28;20550;-72
2022/11/24 08:58:35;;;;;;;1999.90;999.90;;;8.40;99.90;;;;;;4971251;28;20447;-72
2022/11/24 09:01:08;;;;;;;1999.90;999.90;;;8.40;99.90;;;;;;4971709;28;20487;-72
2022/11/24 09:03:36;;;;;;;1999.90;999.90;;;8.40;99.90;;;;;;4972183;28;20448;-72
2022/11/24 09:06:03;;;;;;;1999.90;999.90;;;8.40;99.90;;;;;;4971839;28;20950;-71
2022/11/24 09:08:30;;;;;;;1999.90;999.90;;;8.40;99.90;;;;;;4970844;28;20526;-70
2022/11/24 09:11:00;;;;;;;1999.90;999.90;;;8.40;99.90;;;;;;4970908;28;20969;-70
2022/11/24 09:13:26;;;;;;;1999.90;999.90;;;8.40;99.90;;;;;;4971339;28;20551;-70
2022/11/24 09:15:53;;;;;;;1999.90;999.90;;;8.50;99.90;;;;;;4971112;28;20828;-70
2022/11/24 09:18:22;;;;;;;1999.90;999.90;;;8.60;99.90;;;;;;4970776;28;20451;-70
2022/11/24 09:20:49;;;;;;;1999.90;999.90;;;8.70;99.90;;;;;;4971059;28;21016;-70
2022/11/24 09:23:15;;;;;;;1999.90;999.90;;;8.80;99.90;;;;;;4970838;28;20455;-70
2022/11/24 09:25:42;;;;;;;1999.90;999.90;;;8.90;99.90;;;;;;4971393;28;20488;-70
2022/11/24 09:28:09;;;;;;;1999.90;999.90;;;9.00;99.90;;;;;;4971045;28;20443;-70
2022/11/24 09:30:36;;;;;;;1999.90;999.90;;;9.00;99.90;;;;;;4971068;28;20464;-71
2022/11/24 09:33:02;;;;;;;1999.90;999.90;;;9.00;99.90;;;;;;4971091;28;20458;-72
2022/11/24 09:35:31;;;;;;;1999.90;999.90;;;9.10;99.90;;;;;;4971036;28;20848;-72
2022/11/24 09:37:57;;;;;;;1999.90;999.90;;;9.10;99.90;;;;;;4970909;28;20462;-71
2022/11/24 09:40:24;;;;;;;1999.90;999.90;;;9.10;99.90;;;;;;4970893;28;20478;-72
2022/11/24 09:43:00;;;;;;;1999.90;999.90;;;9.10;99.90;;;;;;4971286;28;20448;-71
2022/11/24 09:45:40;;;;;;;1999.90;999.90;;;9.10;99.90;;;;;;4971217;28;20462;-72
2022/11/24 09:48:12;;;;;;;1999.90;999.90;;;9.10;99.90;;;;;;4970913;28;20462;-71
2022/11/24 09:50:49;;;;;;;1999.90;999.90;;;9.20;99.90;;;;;;4971151;28;20533;-71
2022/11/24 09:53:21;;;;;;;1999.90;999.90;;;9.20;99.90;;;;;;4971160;28;20448;-71
2022/11/24 09:55:50;;;;;;;1999.90;999.90;;;9.20;99.90;;;;;;4971480;28;20497;-70
2022/11/24 09:58:40;;;;;;;1999.90;999.90;;;9.10;99.90;;;;;;4974548;28;20831;-71
2022/11/24 10:01:14;;;;;;;1999.90;999.90;;;9.00;99.90;;;;;;4974695;28;20479;-71
2022/11/24 10:03:43;;;;;;;1999.90;999.90;;;9.00;99.90;;;;;;4974800;28;20451;-71
2022/11/24 10:06:22;;;;;;;1999.90;999.90;;;9.00;99.90;;;;;;4974480;28;20479;-71
2022/11/24 10:09:26;;;;;;;1999.90;999.90;;;9.10;99.90;;;;;;4974164;28;20451;-71
2022/11/24 10:12:04;;;;;;;1999.90;999.90;;;9.20;99.90;;;;;;4939344;28;20462;-71
2022/11/24 10:14:53;;;;;;;1999.90;999.90;;;9.40;99.90;;;;;;4974283;28;20447;-71
2022/11/24 10:17:33;;;;;;;1999.90;999.90;;;9.70;99.90;;;;;;4974312;28;20446;-71
2022/11/24 10:20:05;;;;;;;1999.90;999.90;;;9.80;99.90;;;;;;4974108;28;20467;-71
2022/11/24 10:22:46;;;;;;;1999.90;999.90;;;10.00;99.90;;;;;;4974351;28;20506;-71
2022/11/24 10:25:21;;;;;;;1999.90;999.90;;;10.10;99.90;;;;;;4974132;28;20477;-71
2022/11/24 10:27:54;;;;;;;1999.90;999.90;;;10.20;99.90;;;;;;4974085;28;20457;-71
2022/11/24 10:30:23;;;;;;;1999.90;999.90;;;10.30;99.90;;;;;;4973920;28;20472;-71
2022/11/24 10:32:55;;;;;;;1999.90;999.90;;;10.30;99.90;;;;;;4974258;28;20447;-71
2022/11/24 10:35:26;;;;;;;1999.90;999.90;;;10.50;99.90;;;;;;4973885;28;20944;-71
2022/11/24 10:38:05;;;;;;;1999.90;999.90;;;10.80;99.90;;;;;;4974047;28;20451;-71
2022/11/24 10:40:38;;;;;;;1999.90;999.90;;;11.30;99.90;;;;;;4973647;28;20470;-71
2022/11/24 10:43:09;;;;;;;1999.90;999.90;;;11.50;99.90;;;;;;4974168;28;20455;-71
2022/11/24 10:45:38;;;;;;;1999.90;999.90;;;11.30;99.90;;;;;;4973933;28;20462;-71
2022/11/24 10:48:08;;;;;;;1999.90;999.90;;;11.30;99.90;;;;;;4973802;28;20451;-70
2022/11/24 10:50:38;;;;;;;1999.90;999.90;;;11.30;99.90;;;;;;4973678;28;20516;-71
2022/11/24 10:53:16;;;;;;;1999.90;999.90;;;11.40;99.90;;;;;;4973615;28;20510;-71
2022/11/24 10:56:03;;;;;;;1999.90;999.90;;;11.50;99.90;;;;;;4973626;28;20818;-71
2022/11/24 10:58:32;;;;;;;1999.90;999.90;;;11.60;99.90;;;;;;4973200;28;20451;-71
2022/11/24 11:01:00;;;;;;;1999.90;999.90;;;11.50;99.90;;;;;;4973310;28;20495;-71
2022/11/24 11:03:30;;;;;;;1999.90;999.90;;;11.60;99.90;;;;;;4973204;28;20977;-70
2022/11/24 11:06:14;;;;;;;1999.90;999.90;;;11.60;99.90;;;;;;4973543;28;20447;-70
2022/11/24 11:08:42;;;;;;;1999.90;999.90;;;11.60;99.90;;;;;;4972783;28;20852;-69
2022/11/24 11:11:20;;;;;;;1999.90;999.90;;;11.70;99.90;;;;;;4973301;28;20451;-69
2022/11/24 11:13:52;;;;;;;1999.90;999.90;;;11.70;99.90;;;;;;4973139;28;20513;-69
2022/11/24 11:16:35;;;;;;;1999.90;999.90;;;11.60;99.90;;;;;;4973544;28;20455;-69
2022/11/24 11:19:03;;;;;;;1999.90;999.90;;;11.30;99.90;;;;;;4972703;28;21003;-69
2022/11/24 11:21:35;;;;;;;1999.90;999.90;;;11.00;99.90;;;;;;4973102;28;20484;-68
2022/11/24 11:24:10;;;;;;;1999.90;999.90;;;10.90;99.90;;;;;;4972733;28;20456;-69
2022/11/24 11:26:38;;;;;;;1999.90;999.90;;;10.70;99.90;;;;;;4968631;28;21021;-67
2022/11/24 11:29:18;;;;;;;1999.90;999.90;;;10.70;99.90;;;;;;4971336;28;21032;-71
2022/11/24 11:31:58;;;;;;;1999.90;999.90;;;10.70;99.90;;;;;;4971146;28;20523;-70
2022/11/24 11:34:25;;;;;;;1999.90;999.90;;;10.90;99.90;;;;;;4977520;28;20443;-71
2022/11/24 11:36:54;;;;;;;1999.90;999.90;;;11.10;99.90;;;;;;4972926;28;20453;-70
2022/11/24 11:39:26;;;;;;;1999.90;999.90;;;11.00;99.90;;;;;;4963056;28;20519;-70
2022/11/24 11:42:01;;;;;;;1999.90;999.90;;;11.00;99.90;;;;;;4955110;28;20487;-70
2022/11/24 11:44:34;;;;;;;1999.90;999.90;;;10.90;99.90;;;;;;4952227;28;20454;-71
2022/11/24 11:47:11;;;;;;;1999.90;999.90;;;11.00;99.90;;;;;;4952219;28;20519;-70
2022/11/24 11:49:38;;;;;;;1999.90;999.90;;;10.90;99.90;;;;;;4952175;28;20524;-70
2022/11/24 11:52:19;;;;;;;1999.90;999.90;;;10.90;99.90;;;;;;4952459;29;20471;-70
2022/11/24 11:55:17;;;;;;;1999.90;999.90;;;10.80;99.90;;;;;;4952128;28;20460;-71
2022/11/24 11:57:53;;;;;;;1999.90;999.90;;;10.80;99.90;;;;;;4951902;28;20455;-72
2022/11/24 12:00:21;;;;;;;1999.90;999.90;;;10.90;99.90;;;;;;4952057;28;20502;-69
2022/11/24 12:03:16;;;;;;;1999.90;999.90;;;10.90;99.90;;;;;;4951977;28;20484;-69
2022/11/24 12:05:50;;;;;;;1999.90;999.90;;;10.80;99.90;;;;;;4963929;28;20815;-69
2022/11/24 12:08:28;;;;;;;1999.90;999.90;;;10.90;99.90;;;;;;4962286;28;20446;-69
2022/11/24 12:11:04;;;;;;;1999.90;999.90;;;11.00;99.90;;;;;;4960561;28;20479;-69
2022/11/24 12:13:42;;;;;;;1999.90;999.90;;;11.00;99.90;;;;;;4959583;28;20439;-69
2022/11/24 12:16:19;;;;;;;1999.90;999.90;;;11.00;99.90;;;;;;4960372;28;21340;-71
2022/11/24 12:18:56;;;;;;;1999.90;999.90;;;11.10;99.90;;;;;;4958084;28;20523;-70